Time;durP1;ratioP1;P1;durP2;ratioP2;P2;SDS_P1;SDS_P2;PMS_P1;PMS_P2;Temp;Humidity;BMP_temperature;BMP_pressure;BME280_temperature;BME280_humidity;BME280_pressure;Samples;Min_cycle;Max_cycle;Signal;HPM_P1;HPM_P2
2023/01/06 00:01:13;;;;;;;7.57;2.80;;;;;;;5.54;81.70;95541.52;1787243;80;20999;-69
2023/01/06 00:03:39;;;;;;;4.80;2.40;;;;;;;5.53;81.87;95544.16;1786491;80;20998;-69
2023/01/06 00:06:09;;;;;;;5.10;2.60;;;;;;;5.50;81.88;95549.41;1787107;80;21441;-69
2023/01/06 00:08:36;;;;;;;3.73;2.33;;;;;;;5.50;82.02;95550.70;1787267;80;21011;-69
2023/01/06 00:11:09;;;;;;;5.87;2.40;;;;;;;5.48;82.03;95557.23;1787007;80;21026;-69
2023/01/06 00:13:36;;;;;;;5.53;2.40;;;;;;;5.43;82.40;95556.36;1787218;80;20963;-69
2023/01/06 00:16:09;;;;;;;3.70;2.57;;;;;;;5.42;82.50;95559.86;1795287;80;21072;-69
2023/01/06 00:18:36;;;;;;;5.30;2.20;;;;;;;5.40;82.56;95563.77;1795706;80;20986;-69
2023/01/06 00:21:05;;;;;;;4.07;2.53;;;;;;;5.40;82.72;95566.83;1795371;80;21025;-69
2023/01/06 00:23:33;;;;;;;2.77;2.13;;;;;;;5.41;82.68;95570.74;1795606;80;21019;-69
2023/01/06 00:25:59;;;;;;;5.47;2.50;;;;;;;5.40;82.82;95579.92;1795382;80;21153;-69
2023/01/06 00:28:26;;;;;;;6.57;2.57;;;;;;;5.40;82.84;95570.76;1795388;80;21029;-69
2023/01/06 00:30:53;;;;;;;4.03;2.07;;;;;;;5.39;82.78;95574.23;1795439;80;21496;-69
2023/01/06 00:33:20;;;;;;;3.90;2.53;;;;;;;5.39;82.27;95567.69;1795711;80;20991;-69
2023/01/06 00:35:46;;;;;;;4.17;2.37;;;;;;;5.39;82.30;95566.38;1795347;80;21018;-69
2023/01/06 00:38:13;;;;;;;4.57;2.63;;;;;;;5.35;82.56;95573.81;1795646;80;20986;-69
2023/01/06 00:40:39;;;;;;;2.80;2.20;;;;;;;5.29;82.78;95575.09;1794905;80;21034;-68
2023/01/06 00:43:06;;;;;;;4.10;2.27;;;;;;;5.27;82.73;95592.55;1795568;80;21010;-69
2023/01/06 00:45:33;;;;;;;4.03;2.40;;;;;;;5.22;82.98;95586.00;1795576;80;21029;-68
2023/01/06 00:48:00;;;;;;;3.80;2.30;;;;;;;5.21;83.10;95604.72;1795564;80;20943;-69
2023/01/06 00:50:27;;;;;;;3.63;2.30;;;;;;;5.20;83.00;95603.42;1795521;80;21026;-69
2023/01/06 00:52:53;;;;;;;3.97;2.80;;;;;;;5.21;82.97;95611.25;1795533;80;21468;-68
2023/01/06 00:55:20;;;;;;;4.20;2.43;;;;;;;5.20;83.12;95613.45;1795387;80;21002;-69
2023/01/06 00:57:48;;;;;;;4.63;2.70;;;;;;;5.20;83.12;95623.05;1795619;80;21007;-69
2023/01/06 01:00:15;;;;;;;3.57;2.30;;;;;;;5.20;83.25;95616.50;1795093;80;21039;-69
2023/01/06 01:02:41;;;;;;;3.27;2.17;;;;;;;5.19;83.26;95620.88;1795310;80;21041;-68
2023/01/06 01:05:09;;;;;;;4.20;2.33;;;;;;;5.22;83.17;95629.16;1795403;80;21003;-69
2023/01/06 01:07:36;;;;;;;4.57;2.67;;;;;;;5.23;83.42;95630.03;1795434;80;21519;-69
2023/01/06 01:10:03;;;;;;;4.60;2.57;;;;;;;5.23;83.27;95635.25;1795319;80;20987;-69
2023/01/06 01:12:30;;;;;;;3.17;2.10;;;;;;;5.23;83.47;95641.80;1764586;80;21034;-69
2023/01/06 01:14:57;;;;;;;4.67;2.37;;;;;;;5.22;83.47;95643.55;1792174;80;20991;-69
2023/01/06 01:17:28;;;;;;;4.00;2.50;;;;;;;5.23;83.58;95654.44;1786836;80;21539;-69
2023/01/06 01:19:58;;;;;;;5.10;2.63;;;;;;;5.21;83.60;95658.34;1787049;80;21070;-69
2023/01/06 01:22:28;;;;;;;6.23;3.00;;;;;;;5.19;83.88;95661.41;1786773;80;21083;-69
2023/01/06 01:24:55;;;;;;;2.60;1.90;;;;;;;5.21;83.79;95666.63;1787151;80;20995;-70
2023/01/06 01:27:22;;;;;;;3.23;2.70;;;;;;;5.20;83.76;95666.20;1786873;80;21565;-69
2023/01/06 01:29:48;;;;;;;4.87;2.60;;;;;;;5.20;83.69;95670.99;1787320;80;21062;-69
2023/01/06 01:32:15;;;;;;;4.97;2.67;;;;;;;5.19;83.95;95668.36;1786822;80;21015;-69
2023/01/06 01:34:42;;;;;;;2.60;2.37;;;;;;;5.17;83.91;95670.99;1787186;80;21014;-69
2023/01/06 01:37:08;;;;;;;2.53;2.30;;;;;;;5.16;83.89;95680.13;1786833;80;21453;-68
2023/01/06 01:39:35;;;;;;;4.67;2.57;;;;;;;5.10;84.00;95671.83;1787150;80;21002;-69
2023/01/06 01:42:06;;;;;;;8.13;3.13;;;;;;;5.12;83.83;95675.33;1786927;80;21489;-68
2023/01/06 01:44:58;;;;;;;4.17;2.17;;;;;;;5.11;83.65;95679.23;1787014;80;20983;-69
2023/01/06 01:47:41;;;;;;;3.87;2.40;;;;;;;5.12;83.47;95677.08;1724318;83;21095;-69
2023/01/06 01:50:23;;;;;;;;;;;;;;;5.10;83.45;95680.12;1753942;82;20963;-69
2023/01/06 01:52:55;;;;;;;5.57;2.40;;;;;;;5.08;83.68;95688.39;1778954;80;20152;-69
2023/01/06 01:55:23;;;;;;;3.83;2.67;;;;;;;5.06;83.63;95683.14;1787081;80;21038;-69
2023/01/06 01:58:07;;;;;;;4.23;2.23;;;;;;;5.06;83.67;95690.98;1787391;80;21043;-69
2023/01/06 02:00:35;;;;;;;3.57;2.43;;;;;;;5.05;83.76;95685.77;1785936;80;21026;-69
2023/01/06 02:03:04;;;;;;;6.50;3.17;;;;;;;5.05;83.75;95690.99;1787147;80;21027;-69
2023/01/06 02:05:33;;;;;;;5.30;2.70;;;;;;;5.05;83.57;95693.61;1787012;80;21014;-69
2023/01/06 02:08:04;;;;;;;4.00;3.00;;;;;;;5.03;83.51;95690.97;1754206;80;21556;-69
2023/01/06 02:10:31;;;;;;;5.83;3.13;;;;;;;4.98;83.84;95689.64;1754455;80;21010;-69
2023/01/06 02:12:59;;;;;;;5.07;2.60;;;;;;;4.97;83.67;95683.98;1787048;80;21489;-69
2023/01/06 02:15:33;;;;;;;3.13;2.50;;;;;;;4.97;83.71;95687.04;1790812;80;21499;-69
2023/01/06 02:18:33;;;;;;;5.47;2.50;;;;;;;4.97;83.80;95684.42;1795621;80;21050;-69
2023/01/06 02:21:30;;;;;;;3.13;2.30;;;;;;;4.93;83.82;95678.73;1764041;80;21547;-69
2023/01/06 02:24:29;;;;;;;6.83;2.90;;;;;;;4.95;83.70;95681.79;1791899;80;21054;-69
2023/01/06 02:27:23;;;;;;;6.67;2.87;;;;;;;4.94;83.62;95692.27;1795092;80;21010;-69
2023/01/06 02:30:23;;;;;;;2.63;2.23;;;;;;;4.88;83.79;95685.68;1795500;80;21003;-69
2023/01/06 02:33:08;;;;;;;5.00;2.77;;;;;;;4.87;83.53;95691.34;1795519;80;21105;-69
2023/01/06 02:35:58;;;;;;;5.40;3.17;;;;;;;4.88;83.61;95686.55;1795496;80;21054;-69
2023/01/06 02:38:33;;;;;;;3.07;2.50;;;;;;;4.88;83.68;95692.22;1784796;80;20982;-69
2023/01/06 02:41:30;;;;;;;5.90;3.07;;;;;;;4.85;83.41;95697.44;1795100;80;20983;-69
2023/01/06 02:44:02;;;;;;;5.70;2.70;;;;;;;4.86;83.45;95701.34;1795490;80;21011;-69
2023/01/06 02:46:55;;;;;;;5.27;3.03;;;;;;;4.83;83.47;95704.39;1795561;80;20979;-69
2023/01/06 02:49:43;;;;;;;2.90;2.33;;;;;;;4.82;83.69;95715.28;1764572;80;21491;-69
2023/01/06 02:52:33;;;;;;;3.13;2.83;;;;;;;4.81;83.75;95713.52;1795566;80;20963;-69
2023/01/06 02:55:20;;;;;;;4.87;3.10;;;;;;;4.81;83.83;95718.75;1795657;80;21014;-69
2023/01/06 02:58:01;;;;;;;5.57;2.70;;;;;;;4.81;83.73;95721.80;1795583;80;21014;-69
2023/01/06 03:00:35;;;;;;;6.93;3.20;;;;;;;4.81;83.77;95723.11;1778165;80;21492;-68
2023/01/06 03:03:13;;;;;;;4.17;3.10;;;;;;;4.81;83.83;95720.05;1795446;80;21499;-69
2023/01/06 03:05:43;;;;;;;5.10;3.20;;;;;;;4.82;83.74;95724.87;1795528;80;21082;-69
2023/01/06 03:08:17;;;;;;;6.13;3.07;;;;;;;4.80;83.73;95720.94;1795654;80;21010;-69
2023/01/06 03:10:46;;;;;;;6.60;3.20;;;;;;;4.80;83.77;95720.94;1795573;80;21487;-69
2023/01/06 03:13:53;;;;;;;3.33;3.00;;;;;;;4.83;83.71;95730.53;1795520;80;21003;-69
2023/01/06 03:16:20;;;;;;;7.10;3.33;;;;;;;4.79;83.75;95734.88;1789175;80;20980;-69
2023/01/06 03:18:50;;;;;;;2.60;1.80;;;;;;;4.80;83.74;95741.84;1787148;80;20999;-68
2023/01/06 03:21:22;;;;;;;4.43;2.70;;;;;;;4.77;83.35;95735.30;1787420;80;21465;-69
2023/01/06 03:23:49;;;;;;;4.63;2.87;;;;;;;4.72;83.67;95730.48;1787389;80;20987;-69
2023/01/06 03:26:16;;;;;;;3.37;2.50;;;;;;;4.69;83.50;95731.33;1787134;80;20984;-69
2023/01/06 03:28:43;;;;;;;6.03;3.30;;;;;;;4.71;83.42;95728.30;1787012;80;21137;-69
2023/01/06 03:31:25;;;;;;;4.50;3.40;;;;;;;4.69;83.67;95728.72;1787215;80;21016;-68
2023/01/06 03:34:11;;;;;;;4.43;3.00;;;;;;;4.70;83.18;95730.45;1787129;80;21047;-68
2023/01/06 03:36:43;;;;;;;3.97;3.17;;;;;;;4.68;83.14;95728.70;1787368;80;21004;-69
2023/01/06 03:39:39;;;;;;;4.50;2.93;;;;;;;4.68;83.24;95735.23;1786278;80;20971;-69
2023/01/06 03:43:24;;;;;;;5.13;2.80;;;;;;;4.68;83.29;95728.70;1787252;80;21038;-69
2023/01/06 03:45:25;;;;;;;5.77;3.20;;;;;;;4.67;83.27;95736.98;1776201;80;20987;-69
2023/01/06 03:48:03;;;;;;;6.90;3.00;;;;;;;4.69;83.23;95730.47;1787263;80;21006;-69
2023/01/06 03:50:41;;;;;;;4.87;2.77;;;;;;;4.69;83.02;95748.32;1732962;80;21022;-68
2023/01/06 03:53:20;;;;;;;3.23;2.50;;;;;;;4.67;83.07;95738.28;1786859;80;21022;-69
2023/01/06 03:55:52;;;;;;;5.13;3.03;;;;;;;4.66;83.13;95751.33;1786931;80;21524;-69
2023/01/06 03:58:20;;;;;;;6.30;3.43;;;;;;;4.64;83.27;95757.88;1787161;80;20987;-69
2023/01/06 04:00:49;;;;;;;4.77;3.30;;;;;;;4.62;83.54;95758.73;1787177;80;21050;-69
2023/01/06 04:03:16;;;;;;;5.43;3.87;;;;;;;4.62;83.43;95756.98;1787137;80;20995;-69
2023/01/06 04:05:43;;;;;;;6.47;3.93;;;;;;;4.64;83.42;95756.56;1786948;80;20944;-69
2023/01/06 04:08:10;;;;;;;8.37;4.53;;;;;;;4.67;83.41;95757.88;1786860;80;20987;-69
2023/01/06 04:10:37;;;;;;;4.80;3.30;;;;;;;4.69;83.39;95756.60;1787072;80;21485;-69
2023/01/06 04:13:04;;;;;;;4.40;2.97;;;;;;;4.68;83.33;95751.78;1786589;80;21003;-69
2023/01/06 04:15:32;;;;;;;6.17;4.03;;;;;;;4.69;83.07;95753.55;1789363;80;21540;-69
2023/01/06 04:18:00;;;;;;;6.47;4.10;;;;;;;4.68;83.17;95757.01;1795368;80;21015;-69
2023/01/06 04:20:30;;;;;;;5.90;3.70;;;;;;;4.68;83.09;95771.38;1795639;80;20999;-69
2023/01/06 04:22:59;;;;;;;6.83;3.50;;;;;;;4.68;82.93;95771.82;1795346;80;20979;-68
2023/01/06 04:25:26;;;;;;;4.60;3.37;;;;;;;4.65;82.97;95773.98;1795401;80;20978;-69
2023/01/06 04:27:53;;;;;;;4.37;3.13;;;;;;;4.67;82.98;95785.33;1795043;80;21003;-68
2023/01/06 04:30:20;;;;;;;4.63;3.47;;;;;;;4.65;82.76;95788.36;1795458;80;21006;-69
2023/01/06 04:32:47;;;;;;;6.07;3.10;;;;;;;4.66;82.94;95795.76;1795434;80;20959;-69
2023/01/06 04:35:15;;;;;;;5.93;3.00;;;;;;;4.64;82.81;95794.45;1795575;80;21472;-69
2023/01/06 04:37:43;;;;;;;4.77;3.07;;;;;;;4.64;82.96;95807.97;1795187;80;21051;-69
2023/01/06 04:40:10;;;;;;;6.37;3.20;;;;;;;4.64;82.97;95803.61;1795478;80;20994;-69
2023/01/06 04:45:22;;;;;;;3.87;2.97;;;;;;;4.63;82.81;95818.83;1795705;80;21452;-69
2023/01/06 04:47:49;;;;;;;4.33;3.20;;;;;;;4.61;82.98;95824.91;1795335;80;21010;-69
2023/01/06 04:50:16;;;;;;;6.20;3.40;;;;;;;4.57;82.82;95834.91;1795595;80;21018;-69
2023/01/06 04:52:42;;;;;;;5.93;3.50;;;;;;;4.56;82.88;95834.00;1795535;80;21456;-69
2023/01/06 04:55:09;;;;;;;4.53;3.83;;;;;;;4.54;82.77;95826.61;1795270;80;21030;-69
2023/01/06 04:57:36;;;;;;;6.00;3.57;;;;;;;4.51;82.97;95836.61;1795537;80;20947;-69
2023/01/06 05:00:04;;;;;;;5.13;3.03;;;;;;;4.51;83.13;95844.45;1795491;80;21015;-69
2023/01/06 05:02:31;;;;;;;3.70;2.83;;;;;;;4.50;83.00;95847.91;1795577;80;21476;-69
2023/01/06 05:04:57;;;;;;;3.73;3.07;;;;;;;4.47;82.97;95836.12;1795488;80;20999;-69
2023/01/06 05:07:24;;;;;;;4.63;2.97;;;;;;;4.48;82.98;95846.14;1795295;80;21002;-69
2023/01/06 05:09:50;;;;;;;4.77;2.80;;;;;;;4.46;83.07;95847.45;1795384;80;21023;-69
2023/01/06 05:12:17;;;;;;;5.80;3.43;;;;;;;4.47;83.07;95854.84;1764075;80;20994;-69
2023/01/06 05:14:43;;;;;;;5.50;3.50;;;;;;;4.46;83.26;95856.59;1795246;80;20999;-69
2023/01/06 05:17:10;;;;;;;4.40;3.07;;;;;;;4.46;83.20;95861.82;1788581;80;21055;-69
2023/01/06 05:19:37;;;;;;;4.70;3.17;;;;;;;4.47;83.18;95867.48;1786897;80;21102;-69
2023/01/06 05:22:04;;;;;;;6.13;3.80;;;;;;;4.47;83.25;95870.09;1787047;80;20999;-69
2023/01/06 05:24:30;;;;;;;6.40;3.50;;;;;;;4.49;83.43;95876.22;1786809;80;21059;-68
2023/01/06 05:26:57;;;;;;;5.27;3.93;;;;;;;4.49;83.44;95873.60;1754079;80;21007;-69
2023/01/06 05:29:23;;;;;;;6.30;4.13;;;;;;;4.50;83.55;95878.39;1787016;80;21485;-69
2023/01/06 05:31:50;;;;;;;5.60;3.80;;;;;;;4.49;83.59;95881.88;1786848;80;20976;-69
2023/01/06 05:34:17;;;;;;;5.00;3.93;;;;;;;4.48;83.56;95884.02;1786887;80;21038;-69
2023/01/06 05:36:43;;;;;;;7.33;4.00;;;;;;;4.48;83.52;95884.89;1787098;80;20995;-69
2023/01/06 05:39:10;;;;;;;5.17;4.30;;;;;;;4.48;83.45;95884.02;1787226;80;20983;-69
2023/01/06 05:41:36;;;;;;;8.10;4.37;;;;;;;4.48;83.52;95882.28;1786922;80;21003;-69
2023/01/06 05:44:04;;;;;;;5.90;4.90;;;;;;;4.46;83.78;95893.58;1786709;80;21019;-69
2023/01/06 05:46:30;;;;;;;5.90;5.00;;;;;;;4.41;83.94;95904.41;1787153;80;20987;-68
2023/01/06 05:48:59;;;;;;;9.90;4.13;;;;;;;4.36;83.95;95910.02;1787258;80;20979;-69
2023/01/06 05:51:27;;;;;;;8.03;4.60;;;;;;;4.27;84.54;95918.66;1786986;80;21015;-68
2023/01/06 05:53:54;;;;;;;6.03;4.40;;;;;;;4.19;84.79;95915.09;1786827;80;21087;-68
2023/01/06 05:56:22;;;;;;;5.63;4.80;;;;;;;4.11;85.52;95920.23;1786760;80;21007;-69
2023/01/06 05:58:52;;;;;;;6.93;5.07;;;;;;;4.08;85.59;95935.83;1786782;80;21445;-68
2023/01/06 06:01:24;;;;;;;5.83;4.13;;;;;;;4.02;85.73;95932.73;1787049;80;21046;-69
2023/01/06 06:03:52;;;;;;;6.33;4.80;;;;;;;3.97;85.89;95930.92;1786180;80;21046;-68
2023/01/06 06:06:21;;;;;;;5.90;4.33;;;;;;;3.93;85.71;95948.30;1786911;80;20964;-68
2023/01/06 06:08:48;;;;;;;3.53;3.20;;;;;;;3.89;85.24;95960.41;1787078;80;20995;-68
2023/01/06 06:11:18;;;;;;;5.67;3.33;;;;;;;3.86;84.62;95961.69;1786923;80;21009;-68
2023/01/06 06:13:47;;;;;;;6.20;3.63;;;;;;;3.82;84.51;95967.71;1786955;80;21049;-68
2023/01/06 06:16:16;;;;;;;7.73;3.60;;;;;;;3.81;84.64;95969.89;1787262;80;21481;-68
2023/01/06 06:18:43;;;;;;;9.87;4.40;;;;;;;3.81;84.33;95972.93;1786979;80;21501;-68
2023/01/06 06:21:14;;;;;;;14.27;6.03;;;;;;;3.81;84.29;95972.93;1787179;80;21042;-68
2023/01/06 06:23:42;;;;;;;7.77;4.17;;;;;;;3.81;84.06;95971.19;1787219;80;21019;-68
2023/01/06 06:26:10;;;;;;;16.80;6.10;;;;;;;3.82;83.62;95969.45;1786906;80;21071;-69
2023/01/06 06:28:38;;;;;;;15.70;6.13;;;;;;;3.81;83.26;95980.33;1787106;80;21054;-68
2023/01/06 06:31:19;;;;;;;11.43;5.30;;;;;;;3.80;83.17;95972.46;1787200;80;20999;-69
2023/01/06 06:33:47;;;;;;;9.37;3.87;;;;;;;3.81;82.68;95979.45;1786884;80;21054;-68
2023/01/06 06:36:14;;;;;;;6.37;3.17;;;;;;;3.79;82.28;95978.55;1787329;80;21018;-68
2023/01/06 06:38:46;;;;;;;6.43;2.40;;;;;;;3.78;82.15;95988.52;1787021;80;20983;-69
2023/01/06 06:41:13;;;;;;;6.40;3.17;;;;;;;3.75;80.68;95983.27;1787258;80;21009;-68
2023/01/06 06:43:41;;;;;;;4.20;2.33;;;;;;;3.73;80.61;95998.02;1787225;80;20994;-68
2023/01/06 06:46:08;;;;;;;3.20;2.10;;;;;;;3.72;80.50;95998.45;1787119;80;20971;-68
2023/01/06 06:48:35;;;;;;;4.17;2.10;;;;;;;3.72;80.68;96006.28;1787312;80;21492;-68
2023/01/06 06:51:09;;;;;;;6.33;2.60;;;;;;;3.72;80.43;96015.42;1787279;80;20991;-68
2023/01/06 06:53:37;;;;;;;5.10;2.60;;;;;;;3.72;79.86;96018.03;1787141;80;20995;-68
2023/01/06 06:56:06;;;;;;;3.33;2.33;;;;;;;3.74;80.22;96029.37;1786958;80;21091;-68
2023/01/06 06:58:33;;;;;;;2.40;1.63;;;;;;;3.71;79.21;96031.08;1787280;80;21508;-68
2023/01/06 07:01:09;;;;;;;4.10;2.50;;;;;;;3.67;78.27;96034.05;1787136;80;21022;-68
2023/01/06 07:03:36;;;;;;;5.57;3.53;;;;;;;3.64;78.08;96036.62;1787316;80;21472;-68
2023/01/06 07:06:05;;;;;;;8.60;4.60;;;;;;;3.63;78.38;96044.87;1787182;80;20986;-68
2023/01/06 07:08:32;;;;;;;6.03;4.03;;;;;;;3.63;78.32;96044.01;1787199;80;21480;-68
2023/01/06 07:10:59;;;;;;;7.70;3.70;;;;;;;3.64;78.52;96051.84;1787207;80;21022;-68
2023/01/06 07:13:26;;;;;;;5.90;3.87;;;;;;;3.64;78.41;96049.23;1786866;80;20999;-69
2023/01/06 07:15:54;;;;;;;9.30;5.47;;;;;;;3.62;77.80;96041.80;1787156;80;21042;-68
2023/01/06 07:18:20;;;;;;;3.47;2.30;;;;;;;3.62;77.87;96039.63;1787360;80;21505;-68
2023/01/06 07:20:52;;;;;;;4.83;3.80;;;;;;;3.61;77.38;96041.36;1786946;80;21564;-68
2023/01/06 07:23:20;;;;;;;5.07;2.53;;;;;;;3.62;77.76;96063.98;1787186;80;21050;-68
2023/01/06 07:25:52;;;;;;;1.63;1.50;;;;;;;3.61;77.71;96060.94;1787247;80;21509;-68
2023/01/06 07:28:19;;;;;;;3.37;1.90;;;;;;;3.62;76.89;96065.72;1787083;80;21022;-68
2023/01/06 07:30:46;;;;;;;3.33;2.40;;;;;;;3.61;76.45;96074.41;1786858;80;21130;-68
2023/01/06 07:33:13;;;;;;;5.53;3.07;;;;;;;3.61;77.06;96073.11;1787266;80;21524;-68
2023/01/06 07:35:40;;;;;;;2.47;1.97;;;;;;;3.63;77.27;96075.32;1786708;80;21019;-68
2023/01/06 07:38:08;;;;;;;2.67;1.53;;;;;;;3.62;75.78;96070.94;1787269;80;21037;-68
2023/01/06 07:40:36;;;;;;;2.90;1.97;;;;;;;3.66;77.03;96076.67;1787008;80;21007;-69
2023/01/06 07:43:08;;;;;;;3.37;2.40;;;;;;;3.67;76.99;96076.67;1786786;80;20979;-68
2023/01/06 07:45:35;;;;;;;4.87;3.10;;;;;;;3.71;76.86;96084.14;1787246;80;21133;-68
2023/01/06 07:48:02;;;;;;;4.30;2.90;;;;;;;3.72;76.95;96087.19;1787239;80;21474;-68
2023/01/06 07:50:30;;;;;;;7.30;3.83;;;;;;;3.74;76.62;96094.62;1787252;80;20983;-69
2023/01/06 07:52:58;;;;;;;6.23;1.90;;;;;;;3.76;76.99;96091.62;1787196;80;21517;-69
2023/01/06 07:55:25;;;;;;;1.73;1.50;;;;;;;3.73;75.12;96090.67;1787108;80;21556;-69
2023/01/06 07:57:53;;;;;;;3.20;1.80;;;;;;;3.72;75.16;96096.76;1786749;80;21062;-68
2023/01/06 08:00:20;;;;;;;3.27;1.60;;;;;;;3.68;74.59;96093.23;1787270;80;20991;-68
2023/01/06 08:02:48;;;;;;;2.33;1.70;;;;;;;3.68;74.86;96089.32;1786598;80;21070;-68
2023/01/06 08:05:15;;;;;;;3.37;1.87;;;;;;;3.67;74.89;96100.16;1787207;80;21023;-68
2023/01/06 08:07:42;;;;;;;4.73;2.60;;;;;;;3.71;75.24;96097.19;1787222;80;20999;-68
2023/01/06 08:10:09;;;;;;;4.43;2.33;;;;;;;3.72;75.07;96104.59;1787309;80;20947;-68
2023/01/06 08:12:36;;;;;;;4.07;2.20;;;;;;;3.73;74.32;96107.23;1787056;80;21468;-69
2023/01/06 08:15:04;;;;;;;3.33;1.47;;;;;;;3.73;74.51;96105.93;1786889;80;21067;-68
2023/01/06 08:17:31;;;;;;;3.10;1.90;;;;;;;3.75;74.73;96098.98;1790841;80;21484;-68
2023/01/06 08:19:58;;;;;;;3.10;1.70;;;;;;;3.76;75.03;96105.10;1795558;80;21046;-68
2023/01/06 08:22:25;;;;;;;2.90;1.63;;;;;;;3.76;74.34;96102.05;1795194;80;21543;-68
2023/01/06 08:24:51;;;;;;;2.17;1.63;;;;;;;3.78;74.38;96106.87;1795420;80;20971;-68
2023/01/06 08:27:19;;;;;;;3.40;2.10;;;;;;;3.76;73.99;96111.63;1795632;80;20987;-68
2023/01/06 08:29:48;;;;;;;2.37;1.27;;;;;;;3.73;73.28;96118.98;1795272;80;21074;-68
2023/01/06 08:32:15;;;;;;;2.77;1.80;;;;;;;3.73;72.90;96122.89;1795347;80;21067;-68
2023/01/06 08:34:42;;;;;;;3.43;2.70;;;;;;;3.72;72.80;96128.95;1795168;80;21095;-68
2023/01/06 08:37:11;;;;;;;6.10;4.23;;;;;;;3.73;73.41;96133.33;1764620;80;21042;-68
2023/01/06 08:39:38;;;;;;;4.37;3.00;;;;;;;3.73;72.40;96130.72;1795037;80;21106;-68
2023/01/06 08:42:05;;;;;;;4.53;2.83;;;;;;;3.71;72.36;96132.86;1795442;80;21065;-69
2023/01/06 08:44:31;;;;;;;4.67;2.20;;;;;;;3.72;72.44;96139.39;1795350;80;20994;-69
2023/01/06 08:46:58;;;;;;;1.93;1.43;;;;;;;3.72;71.81;96148.95;1795158;80;21082;-68
2023/01/06 08:49:25;;;;;;;2.90;2.03;;;;;;;3.69;71.10;96154.57;1795190;80;21041;-68
2023/01/06 08:51:51;;;;;;;2.47;1.53;;;;;;;3.68;71.53;96154.56;1795461;80;21017;-68
2023/01/06 08:54:18;;;;;;;1.87;1.27;;;;;;;3.68;71.55;96159.35;1795525;80;21062;-68
2023/01/06 08:56:45;;;;;;;2.77;1.37;;;;;;;3.67;71.40;96156.70;1795384;80;21066;-68
2023/01/06 08:59:15;;;;;;;3.37;2.10;;;;;;;3.68;72.17;96162.39;1795078;80;21449;-69
2023/01/06 09:01:43;;;;;;;1.83;1.27;;;;;;;3.61;71.00;96164.44;1795598;80;20995;-68
2023/01/06 09:04:11;;;;;;;1.70;1.37;;;;;;;3.61;71.33;96166.62;1795216;80;21090;-68
2023/01/06 09:06:41;;;;;;;4.03;1.50;;;;;;;3.65;72.13;96168.44;1795354;80;20990;-68
2023/01/06 09:09:10;;;;;;;2.00;1.33;;;;;;;3.64;71.60;96175.80;1795531;80;20975;-68
2023/01/06 09:11:43;;;;;;;1.90;1.20;;;;;;;3.63;71.27;96169.27;1795464;80;20970;-68
2023/01/06 09:14:12;;;;;;;15.63;10.70;;;;;;;3.63;71.90;96170.14;1795483;80;21003;-68
2023/01/06 09:16:40;;;;;;;5.30;4.67;;;;;;;3.69;72.37;96174.14;1795454;80;20994;-68
2023/01/06 09:19:09;;;;;;;2.00;1.50;;;;;;;3.70;71.30;96169.80;1795424;80;21519;-68
2023/01/06 09:21:35;;;;;;;2.77;2.10;;;;;;;3.68;70.98;96167.18;1795186;80;21042;-68
2023/01/06 09:24:02;;;;;;;2.00;1.60;;;;;;;3.72;71.17;96166.79;1795246;80;21102;-68
2023/01/06 09:26:29;;;;;;;1.77;1.30;;;;;;;3.73;70.49;96148.09;1795468;80;21476;-68
2023/01/06 09:28:55;;;;;;;1.40;1.10;;;;;;;3.77;70.66;96145.56;1795387;80;21475;-69
2023/01/06 09:31:22;;;;;;;2.33;1.43;;;;;;;3.83;70.67;96146.08;1795399;80;21547;-68
2023/01/06 09:33:49;;;;;;;3.77;2.80;;;;;;;3.83;70.32;96147.38;1794990;80;21023;-68
2023/01/06 09:36:15;;;;;;;3.63;2.20;;;;;;;3.86;70.87;96154.86;1795369;80;21010;-68
2023/01/06 09:38:42;;;;;;;3.03;2.37;;;;;;;3.86;69.63;96143.11;1795472;80;21043;-68
2023/01/06 09:41:17;;;;;;;3.20;2.67;;;;;;;3.90;69.72;96146.20;1795135;80;21011;-68
2023/01/06 09:44:10;;;;;;;2.50;1.53;;;;;;;3.93;69.95;96147.11;1795397;80;20995;-68
2023/01/06 09:46:41;;;;;;;3.70;1.80;;;;;;;3.98;70.02;96148.06;1795740;80;21025;-68
2023/01/06 09:49:45;;;;;;;2.40;1.77;;;;;;;4.04;69.67;96144.26;1795190;80;21015;-68
2023/01/06 09:52:15;;;;;;;;;;;;;;;4.10;69.07;96140.42;1798312;80;21492;-68
2023/01/06 09:54:53;;;;;;;2.33;1.23;;;;;;;4.10;67.87;96141.73;1792201;80;20100;-69
2023/01/06 09:57:40;;;;;;;3.63;2.20;;;;;;;4.16;69.14;96142.23;1795519;80;21013;-68
2023/01/06 10:00:39;;;;;;;1.27;1.00;;;;;;;4.22;68.94;96137.13;1795079;80;21559;-68
2023/01/06 10:03:20;;;;;;;1.00;0.80;;;;;;;4.21;65.33;96130.13;1795187;80;21012;-68
2023/01/06 10:06:29;;;;;;;1.37;0.70;;;;;;;4.11;64.58;96133.05;1764564;80;21013;-68
2023/01/06 10:09:18;;;;;;;1.10;1.00;;;;;;;4.09;64.66;96123.88;1795146;80;21053;-68
2023/01/06 10:12:07;;;;;;;2.20;2.00;;;;;;;4.13;65.69;96133.93;1795266;80;21707;-68
2023/01/06 10:14:45;;;;;;;1.57;0.87;;;;;;;4.15;64.44;96129.61;1733497;83;21085;-68
2023/01/06 10:17:38;;;;;;;1.47;0.87;;;;;;;4.19;65.28;96127.95;1737842;81;21062;-69
2023/01/06 10:20:25;;;;;;;1.40;0.82;;;;;;;4.24;66.25;96136.29;1734088;83;21586;-68
2023/01/06 10:23:12;;;;;;;1.00;0.90;;;;;;;4.28;66.42;96139.81;1734458;83;21081;-68
2023/01/06 10:25:54;;;;;;;1.17;0.73;;;;;;;4.26;65.21;96132.41;1733806;83;21133;-68
2023/01/06 10:28:32;;;;;;;4.17;2.50;;;;;;;4.28;65.23;96134.59;1728180;83;21014;-68
2023/01/06 10:31:04;;;;;;;10.03;7.77;;;;;;;4.30;65.32;96131.14;1745866;82;21006;-68
2023/01/06 10:33:42;;;;;;;2.17;1.70;;;;;;;4.31;65.45;96125.52;1746100;82;20994;-68
2023/01/06 10:36:15;;;;;;;1.00;0.90;;;;;;;4.33;65.07;96120.76;1744890;82;21041;-68
2023/01/06 10:38:46;;;;;;;0.80;0.60;;;;;;;4.33;62.77;96124.68;1740443;82;21009;-68
2023/01/06 10:41:42;;;;;;;1.87;0.90;;;;;;;4.34;61.78;96113.80;1740260;82;21133;-68
2023/01/06 10:44:13;;;;;;;1.23;0.80;;;;;;;4.46;63.50;96111.75;1740054;82;21182;-69
2023/01/06 10:46:40;;;;;;;3.17;2.87;;;;;;;4.47;60.29;96109.61;1740120;82;20987;-68
2023/01/06 10:49:13;;;;;;;1.97;1.27;;;;;;;4.52;61.72;96104.88;1740464;82;21034;-69
2023/01/06 10:51:44;;;;;;;2.00;1.70;;;;;;;4.67;63.29;96101.59;1740312;82;21030;-69
2023/01/06 10:54:22;;;;;;;3.23;1.70;;;;;;;4.83;63.24;96103.08;1740469;82;20982;-69
2023/01/06 10:57:05;;;;;;;1.30;1.10;;;;;;;4.96;63.85;96098.02;1740584;82;21037;-69
2023/01/06 10:59:32;;;;;;;1.97;1.10;;;;;;;5.15;62.46;96095.59;1739819;82;21165;-68
2023/01/06 11:01:59;;;;;;;2.53;1.43;;;;;;;5.34;63.30;96088.80;1740458;82;21073;-70
2023/01/06 11:04:27;;;;;;;1.53;1.10;;;;;;;5.47;60.71;96089.78;1740252;82;21037;-69
2023/01/06 11:06:58;;;;;;;2.20;1.30;;;;;;;5.48;60.47;96085.88;1740651;82;21025;-69
2023/01/06 11:09:43;;;;;;;2.37;1.80;;;;;;;5.56;59.50;96080.72;1740614;82;21012;-69
2023/01/06 11:12:26;;;;;;;1.47;1.20;;;;;;;5.91;59.56;96083.61;1740464;82;22299;-69
2023/01/06 11:15:03;;;;;;;1.70;1.22;;;;;;;6.36;57.90;96069.53;1740596;82;21034;-69
2023/01/06 11:17:30;;;;;;;3.22;1.60;;;;;;;7.05;56.91;96065.42;1711693;81;21045;-69
2023/01/06 11:20:21;;;;;;;3.08;2.05;;;;;;;7.59;55.47;96061.58;1766197;81;21093;-69
2023/01/06 11:22:47;;;;;;;3.83;2.95;;;;;;;7.87;54.01;96061.14;1766381;81;21026;-70
2023/01/06 11:25:31;;;;;;;3.83;2.47;;;;;;;8.11;53.04;96054.96;1766453;81;21051;-69
2023/01/06 11:28:18;;;;;;;8.58;5.62;;;;;;;8.39;51.43;96053.59;1766166;81;21011;-69
2023/01/06 11:30:52;;;;;;;8.25;5.35;;;;;;;8.52;53.38;96061.06;1766370;81;21034;-70
2023/01/06 11:33:23;;;;;;;7.22;3.50;;;;;;;8.93;51.94;96052.13;1766457;81;21480;-70
2023/01/06 11:35:51;;;;;;;4.33;2.83;;;;;;;8.83;51.30;96052.16;1766362;81;20998;-70
2023/01/06 11:38:20;;;;;;;4.85;2.40;;;;;;;8.64;49.73;96057.95;1766523;81;21041;-70
2023/01/06 11:40:49;;;;;;;3.98;3.10;;;;;;;8.75;50.48;96054.41;1766284;81;21073;-70
2023/01/06 11:43:27;;;;;;;2.15;1.32;;;;;;;9.15;48.47;96051.55;1766393;81;21058;-69
2023/01/06 11:45:58;;;;;;;1.77;1.20;;;;;;;9.65;48.83;96055.19;1766035;81;21026;-70
2023/01/06 11:48:40;;;;;;;2.33;1.40;;;;;;;9.99;46.47;96054.03;1766563;81;21014;-69
2023/01/06 11:51:08;;;;;;;2.33;2.12;;;;;;;10.23;47.05;96044.58;1765784;81;21532;-69
2023/01/06 11:53:38;;;;;;;3.22;2.02;;;;;;;10.38;45.50;96041.81;1766376;81;21562;-69
2023/01/06 11:56:18;;;;;;;3.42;2.47;;;;;;;10.38;45.50;96041.81;1766229;81;21022;-69
2023/01/06 11:58:59;;;;;;;2.33;1.42;;;;;;;10.31;45.64;96042.77;1766426;81;21009;-69
2023/01/06 12:01:42;;;;;;;5.10;2.80;;;;;;;10.35;44.39;96040.50;1766371;81;21081;-69
2023/01/06 12:04:18;;;;;;;;;;;;;;;10.14;46.08;96039.38;1769095;81;21066;-69
2023/01/06 12:06:46;;;;;;;4.10;2.30;;;;;;;10.13;46.03;96033.66;1759902;81;20110;-69